»·PEaware :: N3949X KOXR-KAVX

N3949X :: KOXR-KAVX

FLIGHT INFORMATION

Flight Status: Arrived
Operator: Privately registered:
United States
More flights under this callsign
Pilot: Justin Z. (25672)
Aircraft: Unknown
(P28U)
More flights by this aircraft type
Origin: KOXR Oxnard
United States
Destination: KAVX Catalina
United States
More flights between these airports :: More routes between these airports
Route: VTU V208 SXC
File this flight plan on PilotEdge
Remarks: VTUP5
Altitude:
(Current/Filed)
5,000ft
Speed:
(Current/Filed)
125kts
Departed: 02-Jan-21 04:09 PM
Arrived: 02-Jan-21 04:59 PM
Distance/Time
Traveled:
62nm/0:49
Distance/Time
To Go:
Arrived

Flight Plot

Page will automatically refresh every two minutes.


Map Options




Map Legend


Flown Route
Filed Route
Departure Airport
Arrival Airport
Navaid (VOR, NDB)
Fix

Horizontal Profiles

Position Reports

Time Latitude Longitude Heading Altitude Ground
Speed
02-Jan-21 15:56 34.198999 -119.197762 269 42ft 0kts
02-Jan-21 15:57 34.198999 -119.197762 269 42ft 0kts
02-Jan-21 15:58 34.198999 -119.197762 269 42ft 0kts
02-Jan-21 15:59 34.198999 -119.197762 269 42ft 0kts
02-Jan-21 16:00 34.198999 -119.197762 269 42ft 0kts
02-Jan-21 16:01 34.198999 -119.197762 269 42ft 0kts
02-Jan-21 16:02 34.198999 -119.197762 269 42ft 0kts
02-Jan-21 16:03 34.198999 -119.197762 269 42ft 0kts
02-Jan-21 16:04 34.198999 -119.197762 269 42ft 0kts
02-Jan-21 16:05 34.199352 -119.197890 350 43ft 8kts
02-Jan-21 16:06 34.199881 -119.197581 28 42ft 0kts
02-Jan-21 16:07 34.200744 -119.198689 270 43ft 32kts
02-Jan-21 16:08 34.202694 -119.225334 272 768ft 96kts
02-Jan-21 16:09 34.204966 -119.258237 275 1664ft 102kts
02-Jan-21 16:10 34.209265 -119.291945 271 2419ft 108kts
02-Jan-21 16:11 34.190828 -119.303552 132 3117ft 122kts
02-Jan-21 16:12 34.179416 -119.263028 104 3639ft 132kts
02-Jan-21 16:13 34.171433 -119.219606 110 4145ft 132kts
02-Jan-21 16:14 34.157354 -119.178649 124 4637ft 132kts
02-Jan-21 16:15 34.143836 -119.136445 108 4999ft 142kts
02-Jan-21 16:16 34.131270 -119.089519 120 5049ft 146kts
02-Jan-21 16:17 34.109767 -119.048857 161 4975ft 137kts
02-Jan-21 16:18 34.074726 -119.043868 190 5011ft 125kts
02-Jan-21 16:19 34.039368 -119.038148 181 4954ft 127kts
02-Jan-21 16:20 34.004087 -119.034483 180 4908ft 129kts
02-Jan-21 16:21 33.970106 -119.030815 181 5127ft 122kts
02-Jan-21 16:22 33.934811 -119.026618 179 5073ft 127kts
02-Jan-21 16:23 33.899050 -119.020453 178 5001ft 129kts
02-Jan-21 16:24 33.863623 -119.017100 182 5039ft 126kts
02-Jan-21 16:25 33.828292 -119.012429 176 5042ft 129kts
02-Jan-21 16:26 33.794164 -119.001452 138 5029ft 139kts
02-Jan-21 16:27 33.769976 -118.963616 138 4960ft 141kts
02-Jan-21 16:28 33.742163 -118.931214 146 4982ft 138kts
02-Jan-21 16:29 33.711174 -118.904487 150 5047ft 137kts
02-Jan-21 16:30 33.686350 -118.868072 125 5094ft 145kts
02-Jan-21 16:31 33.664072 -118.827128 129 5121ft 145kts
02-Jan-21 16:32 33.635016 -118.792610 143 5033ft 146kts
02-Jan-21 16:33 33.605630 -118.757466 133 4970ft 148kts
02-Jan-21 16:34 33.581716 -118.716980 124 5031ft 148kts
02-Jan-21 16:35 33.559904 -118.674934 142 5026ft 148kts
02-Jan-21 16:36 33.525771 -118.648902 150 5049ft 147kts
02-Jan-21 16:37 33.491447 -118.622289 149 5045ft 147kts
02-Jan-21 16:38 33.456697 -118.597065 154 5052ft 146kts
02-Jan-21 16:39 33.421989 -118.571263 152 5039ft 146kts
02-Jan-21 16:40 33.387759 -118.544505 152 5027ft 146kts
02-Jan-21 16:41 33.353189 -118.518552 152 5017ft 146kts
02-Jan-21 16:42 33.318127 -118.493809 154 5011ft 146kts
02-Jan-21 16:43 33.282692 -118.470758 135 5015ft 148kts
02-Jan-21 16:44 33.297779 -118.436857 4 4335ft 140kts
02-Jan-21 16:45 33.335158 -118.428813 8 4043ft 132kts
02-Jan-21 16:46 33.370856 -118.420074 11 4071ft 129kts
02-Jan-21 16:47 33.406727 -118.413096 356 3987ft 131kts
02-Jan-21 16:48 33.442619 -118.410269 1 4054ft 125kts
02-Jan-21 16:49 33.477762 -118.408673 316 3918ft 129kts
02-Jan-21 16:50 33.506475 -118.436517 321 3513ft 138kts
02-Jan-21 16:51 33.533721 -118.433419 94 3494ft 115kts
02-Jan-21 16:52 33.516514 -118.405935 138 3546ft 99kts
02-Jan-21 16:53 33.493503 -118.397282 196 3468ft 92kts
02-Jan-21 16:54 33.468371 -118.404537 197 2554ft 90kts
02-Jan-21 16:56 33.444463 -118.410667 188 2294ft 91kts
02-Jan-21 16:57 33.421254 -118.401813 162 1983ft 80kts
02-Jan-21 16:58 33.406268 -118.413594 235 1523ft 49kts
02-Jan-21 16:59 33.403215 -118.415641 56 1549ft 0kts
02-Jan-21 17:00 33.403215 -118.415641 56 1549ft 0kts

Navigation Log

Ident Type
Flight plan parsing failed, navigation log unavailable